Timeline UpdatesTrip UpdatesNews PostsPvt Posts♥♥Travel TipsAdmin PostsConv PostsFollowed PostsChat RequestsBlog PostsPNR Posts

Disclaimer
Search
 
 
Tue Oct 21, 2014 15:53:59 ISTHomeTrainsΣChainsAtlasPNRForumGalleryNewsFAQTripsMembersLoginFeedback
No Recent News for this Train
Other Trains in the News **new
Latest...
Cancelled on 3/8/14
Fri Aug 01, 2014 (08:09PM)
⇐ Return Journey: Train# 58118

58117/Jharsuguda-Gondia Passenger (UnReserved)

Time-Table HAS CHANGED.
Sep 03 2014 (8:47PM)
Change Departure Station:
Change Arrival Station:
Post a Train Travel TipPost a Train Travel Tip **new
Post a Comment/Question/Picture/VideoPost a Comment/Question/Picture/Video
Pantry/Catering
???
RSA - Rake Sharing
Rake/Coach Composition
Loco
News    PNR    Forum    Time-Table    Availability    Fare Chart    Map    Arr/Dep History    Trips    Gallery    ΣChains    X/O    Timeline    
Travel Time: 14h 0m    63 halts    Distance: 487 km    Avg Speed: 34 km/hr
Type: Passenger
Zone: SER/South Eastern
Departs @ 07:15 (Avg on time)
Platform# ???
SMTWTFS
Jharsuguda Junction/JSG 
Arrives @ 21:15 (Avg 8m late)
Platform# 2
SMTWTFS
Gondia Junction/G 

63 halts. 64 intermediate Stations between Jharsuguda Junction and Gondia Junction

Show ALL intermediate Stations  Show Old Time-Table

#TrkCodeStation NameX/OArrivesAvgDepartsAvgHaltPFDay#KmSpeedElevZoneAddress
1/==/JSGJharsuguda Junction (5)»  -07:15+0--10.0-236mSERJharsuguda, Odisha
2/==/IBIb  07:20 07:16+607:21 07:17+91m--19.040207mSECRJharsuguda, Odisha
3/==/BRJNBrajrajnagarX  07:23 07:21+1207:25 07:23+122m--111.776212mSECRBrajrajnagar, Odisha
4/==/BPHBelpahar  07:31 07:30+2207:32+251 2m--120.673 SECRBelpahar, Odisha
5/==/HGRHimgir  07:44 07:43+2607:45+271 2m--134.064275mSECRNational Highway 200, Chhattisgarh
6/==/DAODaghora  07:53 07:52+2807:54+281 2m--141.472269mSECRRaigarh, Chhattisgarh
7/==/JMGJamga  08:05 08:04+2708:06+271 2m--153.473233mSECRJamga Station, Chhattisgarh
8/==/KRLKotarlia  08:14 08:13+2608:15+261 2m--161.939229mSECRRaigarh, Chhattisgarh
9/==/RIGRaigarh (3)O  08:30+1309:00+1330m--171.772220mSECRRaigarh, Chhattisgarh
10/==/KDTRKirodimalnagar (5)X  09:06+2209:07 09:08+231 2m--178.879240mSECRRaigarh, Chhattisgarh
11/==/BEFBhupdeopur  09:16 09:15+2709:17+281 2m--188.177243mSECRRaigarh, Chhattisgarh
12/==/ROBRobertsonO  09:26 09:24+3009:27 09:26+311 2m--197.157239mSECRRaigarh, Chhattisgarh
13/==/KHSKharsiaX  09:35+2309:36 09:37+241 2m--1105.663 SECRNational Highway 200, Chhattisgarh
14/==/JDIJharradihX  09:42+3609:44+362m--1110.876247mSECRRaigarh, Chhattisgarh
15/==/SKTSakti (4)  09:53 09:52+4109:54+591 2m--1121.052237mSECRJanjgir-Champa, Chhattisgarh
16/==/JDDAJethaX  10:07 10:03-10:08 10:05-1 2m--1128.871244mSECRNational Highway 200, Chhattisgarh
17/==/BUABaradwarX  10:14 10:11+3910:15 10:13+401 2m--1135.956 SECRJanjgir-Champa, Chhattisgarh
18/==/SGRDSaragaon RoadX  10:22 10:20-10:23 10:22-1 2m--1142.438254mSECRNational Highway 200, Chhattisgarh
19/==/CPHChampa Junction (3)X  10:38 10:36+3810:43 10:41+385m--1151.481264mSECRNational Highway 200 (07819-245767), Chhattisgarh
20/==/NIANailaX  10:52 10:49+5410:53 10:51+551 2m--1162.272273mSECRJanjgir, Chhattisgarh
21/==/KPNAKapan (1)X  11:02 10:57-11:03 10:59-1 2m11169.566263mSECRNational Highway 200, Chhattisgarh
22/==/AKTAkaltara (4)X  11:12 11:06+1:1111:13 11:08+1:121 2m--1177.264284mSECRDist. Janjgir Champa, Chhattisgarh
23/==/KTSHKotmi Sonar Halt  11:20 11:14-11:21 11:16-1 2m--1183.667266mSECRKotmisunar, Chhattisgarh
24/==/JRMGJairamnagarX  11:28 11:22+1:1511:29 11:24+1:151 2m--1190.333272mSECRNational Highway 200, Chhattisgarh
25/==/GTWGatora  11:42 11:38+1:1111:43 11:40+1:111 2m--1197.98268mSECRBilaspur, Chhattisgarh
26/==/BSPBilaspur Junction (8)X  12:30+1013:00+1030m--1204.431271mSECRBilaspur, Chhattisgarh
27/==/DPHDadhapara (3)  13:12 13:13+3013:13 13:14+311m--1211.146272mSECRBilaspur, Chhattisgarh
28/==/CHBTChakarbhathaX  13:17 13:18-13:18 13:20-1 2m--1214.170285mSECRBilaspur, Chhattisgarh
29/==/BYLBelha  13:24 13:25+3113:25 13:27+311 2m--1219.977269mSECRCollege Road, Chhattisgarh
30/==/DGSDagoriXO  13:32 13:33+3113:33 13:35+311 2m--1227.649254mSECRCollege Road, Chhattisgarh
31/==/NPINipaniaX  13:42 13:45+3313:43 13:47+341 2m--1235.980259mSECRNational Highway 200, Chhattisgarh
32/==/BYTBhatapara (4)XO  13:54 13:58+1013:55 14:00+101 2m--1250.684270mSECRBanjari Road, Chhattisgarh
33/==/HNHathbandh  14:07 14:11+4014:08 14:13+401 2m--1265.980283mSECRRaipur, Chhattisgarh
34/==/TLDTilda (3)O  14:22 14:21+2114:23 14:25+221 4m--1276.7122 SECRBanjari Rd, Chhattisgarh
35/==/BKTHBaikunthXO  14:29 14:28-14:30-1 2m--1282.850287mSECRBanjari Rd, Chhattisgarh
36/==/SLHSiliariX  14:44 14:40+3514:45 14:42+381 2m--1291.164280mSECRBanjari Rd, Chhattisgarh
37/==/MDHMandharX  14:59 14:51+5715:00 14:52+1:201m--1300.739281mSECRDonde Kalan, Chhattisgarh
38/==/URKUrkura  15:09 15:05+1:2315:10 15:07+1:241 2m--1309.230275mSECRRaipur, Chhattisgarh
39/==/WRCWRS Colony PHXO  15:17 15:13-15:18 15:14-1m--1312.24286mSECRRaipur, Chhattisgarh
40/==/RRaipur Junction (6)XO  15:50+1816:30+1540m--1314.823297mSECRRaipur, Chhattisgarh
41/==/SRWNSaraswatinagar (2)X  16:35 16:36+1516:36 16:38+151 2m--1317.148291mSECRRaipur, Chhattisgarh
42/==/SZBSarona Cabin (2)X  16:42 16:43+1716:43 16:44+171m--1321.162282mSECRRaipur, Chhattisgarh
43/==/KMIKumhari (2)  16:49 16:50+2916:50 16:51+291m--1327.262287mSECRKumhari, Chhattisgarh
44/==/ new halt!!  16:56-16:57-1m--1332.4620m???
45/==/ new halt!!  17:01-17:03-2m--1336.5180m???
46/==/BIABhilai (2)X  17:07 17:08+1317:08 17:10+141 2m--1338.056309mSECRBhilai, Chhattisgarh
47/==/BPHBBhilai Power House (3)X  17:14 17:15+417:15 17:17+41 2m--1342.633312mSECRBhilai, Chhattisgarh
48/==/BQRBhilai Nagar (2)  17:24 17:25+417:25 17:26+41m--1347.114298mSECRBhilai, Chhattisgarh
49/==/DURGDurg Junction (6)X  17:45+217:50+25m--1351.669299mSECRPh: 91-788-2322059, Chhattisgarh
50/==/RSMRasmaraX  17:56 17:57+2117:57 17:58+221m--1359.675292mSECRRasmada, Chhattisgarh
51/==/MUPMurhipar  18:03 18:04+2218:04 18:06+221 2m--1367.170319mSECRRajnandgaon, Chhattisgarh
52/==/PMSParmalkasaX  18:11 18:12+2218:12 18:13+231m--1374.168300mSECRRajnandgaon, Chhattisgarh
53/==/RJNRaj Nandgaon (3)X  18:20+1318:22+132m--1382.079313mSECRRajnandgaon, Chhattisgarh
54/==/BAKLBakal  18:29 18:30+2518:30 18:31+261m--1392.678318mSECRRajnandgaon, Chhattisgarh
55/==/MUAMusraXO  18:37+3018:38+321m--1400.467323mSECRRajnandgaon, Chhattisgarh
56/==/JTRJatkanhar  18:44+3418:45+391m--1407.139330mSECRRajnandgaon, Chhattisgarh
57/==/DGGDongargarh (2)X  18:55+819:05+810m--1413.658 SECRDongargarh, Chhattisgarh
58/==/PJBPaniajob (2)  19:12 19:13+3719:13 19:14+371m--1421.353363mSECRRajnandgaon, Chhattisgarh
59/==/BTLBortalao (2)  19:23 19:24+3519:24 19:25+351m--1430.177409mSECRRajnandgaon, Chhattisgarh
60/==/DKSDarekasa (2)X  19:31+3819:32+421m--1437.849381mSECRRajnandgaon, Chhattisgarh
61/==/SKSSalekasa (2)  19:45 19:46+4119:46 19:48+411 2m--1449.375312mSECRRajnandgaon, Chhattisgarh
62/==/DNLDhanoli (2)  19:54-19:55-1m--1456.862310mSECRAmgaon, Maharashtra
63/==/AGNAmgaon (2)X  20:01 20:02+3920:02 20:04+391 2m--1464.073317mSECRGondia, Maharashtra
64/==/GDMGudma (2)  20:17 20:13+4420:18 20:14+451m--1475.012323mSECRGondia, Maharashtra
65/==/GGondia Junction (7)•  21:20 21:15+8-21486.9-316mSECRGondia 441601, Maharashtra
Scroll to Top
Scroll to Bottom